sensor_id;sensor_type;location;lat;lon;timestamp;pressure;altitude;pressure_sealevel;temperature;humidity
77192;BME280;66172;48.526;8.078;2023-02-28T00:02:23;100201.63;;;0.44;49.73
77192;BME280;66172;48.526;8.078;2023-02-28T00:04:48;100204.59;;;0.47;49.41
77192;BME280;66172;48.526;8.078;2023-02-28T00:07:18;100207.03;;;0.49;50.26
77192;BME280;66172;48.526;8.078;2023-02-28T00:09:44;100199.78;;;0.49;49.88
77192;BME280;66172;48.526;8.078;2023-02-28T00:12:10;100206.44;;;0.42;50.60
77192;BME280;66172;48.526;8.078;2023-02-28T00:14:36;100210.66;;;0.38;51.11
77192;BME280;66172;48.526;8.078;2023-02-28T00:17:02;100203.09;;;0.30;50.61
77192;BME280;66172;48.526;8.078;2023-02-28T00:19:31;100205.34;;;0.43;50.07
77192;BME280;66172;48.526;8.078;2023-02-28T00:21:57;100210.06;;;0.31;50.27
77192;BME280;66172;48.526;8.078;2023-02-28T00:24:23;100198.28;;;0.32;50.54
77192;BME280;66172;48.526;8.078;2023-02-28T00:26:49;100213.38;;;0.43;50.75
77192;BME280;66172;48.526;8.078;2023-02-28T00:29:15;100208.91;;;0.48;50.68
77192;BME280;66172;48.526;8.078;2023-02-28T00:31:40;100199.47;;;0.41;49.93
77192;BME280;66172;48.526;8.078;2023-02-28T00:34:06;100192.25;;;0.41;49.27
77192;BME280;66172;48.526;8.078;2023-02-28T00:36:32;100196.41;;;0.32;50.15
77192;BME280;66172;48.526;8.078;2023-02-28T00:38:58;100191.78;;;0.23;50.51
77192;BME280;66172;48.526;8.078;2023-02-28T00:41:24;100184.56;;;0.23;50.97
77192;BME280;66172;48.526;8.078;2023-02-28T00:43:50;100185.81;;;0.16;50.83
77192;BME280;66172;48.526;8.078;2023-02-28T00:46:16;100187.38;;;0.12;51.38
77192;BME280;66172;48.526;8.078;2023-02-28T00:48:42;100186.63;;;0.16;51.47
77192;BME280;66172;48.526;8.078;2023-02-28T00:51:08;100179.16;;;0.18;51.27
77192;BME280;66172;48.526;8.078;2023-02-28T00:53:33;100179.53;;;0.27;50.80
77192;BME280;66172;48.526;8.078;2023-02-28T00:55:59;100189.47;;;0.31;50.92
77192;BME280;66172;48.526;8.078;2023-02-28T00:58:26;100186.59;;;0.38;51.65
77192;BME280;66172;48.526;8.078;2023-02-28T01:00:53;100186.28;;;0.34;50.94
77192;BME280;66172;48.526;8.078;2023-02-28T01:03:20;100184.00;;;0.21;51.34
77192;BME280;66172;48.526;8.078;2023-02-28T01:05:46;100182.06;;;0.38;51.20
77192;BME280;66172;48.526;8.078;2023-02-28T01:08:13;100186.31;;;0.39;51.17
77192;BME280;66172;48.526;8.078;2023-02-28T01:10:40;100190.09;;;0.43;51.59
77192;BME280;66172;48.526;8.078;2023-02-28T01:13:06;100192.75;;;0.38;51.79
77192;BME280;66172;48.526;8.078;2023-02-28T01:15:32;100191.34;;;0.31;51.91
77192;BME280;66172;48.526;8.078;2023-02-28T01:17:58;100197.97;;;0.28;52.00
77192;BME280;66172;48.526;8.078;2023-02-28T01:20:24;100197.22;;;0.33;52.24
77192;BME280;66172;48.526;8.078;2023-02-28T01:22:50;100192.28;;;0.20;52.17
77192;BME280;66172;48.526;8.078;2023-02-28T01:25:16;100190.72;;;0.24;52.56
77192;BME280;66172;48.526;8.078;2023-02-28T01:27:42;100194.38;;;0.18;53.17
77192;BME280;66172;48.526;8.078;2023-02-28T01:30:09;100196.19;;;0.34;52.64
77192;BME280;66172;48.526;8.078;2023-02-28T01:32:35;100190.06;;;0.38;52.22
77192;BME280;66172;48.526;8.078;2023-02-28T01:35:01;100183.25;;;0.26;53.74
77192;BME280;66172;48.526;8.078;2023-02-28T01:37:27;100194.22;;;0.24;53.25
77192;BME280;66172;48.526;8.078;2023-02-28T01:39:53;100191.47;;;0.19;53.95
77192;BME280;66172;48.526;8.078;2023-02-28T01:42:19;100191.78;;;0.23;54.68
77192;BME280;66172;48.526;8.078;2023-02-28T01:45:01;100192.53;;;0.18;55.11
77192;BME280;66172;48.526;8.078;2023-02-28T01:47:34;100195.50;;;0.22;54.75
77192;BME280;66172;48.526;8.078;2023-02-28T01:50:04;100192.63;;;0.28;53.91
77192;BME280;66172;48.526;8.078;2023-02-28T01:52:32;100186.13;;;0.19;54.28
77192;BME280;66172;48.526;8.078;2023-02-28T01:54:59;100184.72;;;0.12;54.53
77192;BME280;66172;48.526;8.078;2023-02-28T01:57:34;100183.34;;;0.09;55.25
77192;BME280;66172;48.526;8.078;2023-02-28T02:00:15;100190.56;;;0.09;55.92
77192;BME280;66172;48.526;8.078;2023-02-28T02:02:43;100198.50;;;0.04;56.09
77192;BME280;66172;48.526;8.078;2023-02-28T02:05:14;100193.97;;;0.04;56.67
77192;BME280;66172;48.526;8.078;2023-02-28T02:07:43;100184.97;;;0.10;56.54
77192;BME280;66172;48.526;8.078;2023-02-28T02:13:01;100192.38;;;0.03;57.06
77192;BME280;66172;48.526;8.078;2023-02-28T02:15:34;100181.00;;;-0.09;57.50
77192;BME280;66172;48.526;8.078;2023-02-28T02:18:12;100184.72;;;-0.10;56.71
77192;BME280;66172;48.526;8.078;2023-02-28T02:26:58;100168.78;;;-0.05;56.81
77192;BME280;66172;48.526;8.078;2023-02-28T02:35:37;100165.69;;;0.08;56.29
77192;BME280;66172;48.526;8.078;2023-02-28T02:38:18;100162.41;;;0.01;56.56
77192;BME280;66172;48.526;8.078;2023-02-28T02:41:02;100166.19;;;0.05;56.48
77192;BME280;66172;48.526;8.078;2023-02-28T02:46:10;100167.84;;;0.11;56.34
77192;BME280;66172;48.526;8.078;2023-02-28T02:48:39;100170.59;;;0.16;56.06
77192;BME280;66172;48.526;8.078;2023-02-28T02:51:11;100172.16;;;0.12;56.28
77192;BME280;66172;48.526;8.078;2023-02-28T02:53:49;100170.00;;;0.09;56.77
77192;BME280;66172;48.526;8.078;2023-02-28T02:56:19;100164.28;;;0.00;56.89
77192;BME280;66172;48.526;8.078;2023-02-28T02:58:48;100174.53;;;0.09;56.48
77192;BME280;66172;48.526;8.078;2023-02-28T03:01:18;100171.34;;;0.12;56.69
77192;BME280;66172;48.526;8.078;2023-02-28T03:03:57;100167.31;;;0.09;57.97
77192;BME280;66172;48.526;8.078;2023-02-28T03:06:25;100169.38;;;0.02;57.60
77192;BME280;66172;48.526;8.078;2023-02-28T03:08:51;100156.97;;;-0.09;58.96
77192;BME280;66172;48.526;8.078;2023-02-28T03:11:16;100175.34;;;-0.13;58.09
77192;BME280;66172;48.526;8.078;2023-02-28T03:17:09;100161.19;;;-0.13;59.00
77192;BME280;66172;48.526;8.078;2023-02-28T03:20:01;100169.19;;;-0.13;58.91
77192;BME280;66172;48.526;8.078;2023-02-28T03:25:54;100161.69;;;-0.16;59.43
77192;BME280;66172;48.526;8.078;2023-02-28T03:28:37;100160.56;;;-0.42;60.49
77192;BME280;66172;48.526;8.078;2023-02-28T03:31:30;100161.66;;;-0.43;60.47
77192;BME280;66172;48.526;8.078;2023-02-28T03:34:09;100158.41;;;-0.45;60.52
77192;BME280;66172;48.526;8.078;2023-02-28T03:36:39;100165.59;;;-0.45;60.68
77192;BME280;66172;48.526;8.078;2023-02-28T03:39:30;100154.38;;;-0.47;61.03
77192;BME280;66172;48.526;8.078;2023-02-28T03:42:00;100150.09;;;-0.48;61.02
77192;BME280;66172;48.526;8.078;2023-02-28T03:44:32;100153.88;;;-0.44;60.77
77192;BME280;66172;48.526;8.078;2023-02-28T03:47:04;100150.19;;;-0.38;60.63
77192;BME280;66172;48.526;8.078;2023-02-28T03:49:39;100154.25;;;-0.36;60.76
77192;BME280;66172;48.526;8.078;2023-02-28T03:52:09;100151.28;;;-0.39;61.35
77192;BME280;66172;48.526;8.078;2023-02-28T03:54:44;100162.78;;;-0.39;61.19
77192;BME280;66172;48.526;8.078;2023-02-28T03:57:25;100154.94;;;-0.45;61.73
77192;BME280;66172;48.526;8.078;2023-02-28T04:00:03;100156.66;;;-0.56;61.68
77192;BME280;66172;48.526;8.078;2023-02-28T04:02:32;100161.94;;;-0.61;62.11
77192;BME280;66172;48.526;8.078;2023-02-28T04:05:00;100156.13;;;-0.58;62.72
77192;BME280;66172;48.526;8.078;2023-02-28T04:07:29;100154.44;;;-0.64;62.66
77192;BME280;66172;48.526;8.078;2023-02-28T04:09:55;100154.19;;;-0.63;62.56
77192;BME280;66172;48.526;8.078;2023-02-28T04:12:21;100163.59;;;-0.77;63.34
77192;BME280;66172;48.526;8.078;2023-02-28T04:14:49;100159.34;;;-0.56;62.32
77192;BME280;66172;48.526;8.078;2023-02-28T04:17:15;100162.00;;;-0.56;62.18
77192;BME280;66172;48.526;8.078;2023-02-28T04:19:41;100155.63;;;-0.55;62.41
77192;BME280;66172;48.526;8.078;2023-02-28T04:22:09;100164.88;;;-0.63;62.84
77192;BME280;66172;48.526;8.078;2023-02-28T04:24:35;100167.84;;;-0.59;62.68
77192;BME280;66172;48.526;8.078;2023-02-28T04:27:01;100163.00;;;-0.62;62.87
77192;BME280;66172;48.526;8.078;2023-02-28T04:29:29;100165.13;;;-0.64;63.08
77192;BME280;66172;48.526;8.078;2023-02-28T04:31:56;100155.31;;;-0.59;62.32
77192;BME280;66172;48.526;8.078;2023-02-28T04:34:27;100154.31;;;-0.53;62.27
77192;BME280;66172;48.526;8.078;2023-02-28T04:36:54;100149.16;;;-0.59;62.43
77192;BME280;66172;48.526;8.078;2023-02-28T04:39:21;100151.59;;;-0.58;62.01
77192;BME280;66172;48.526;8.078;2023-02-28T04:41:47;100156.31;;;-0.65;62.14
77192;BME280;66172;48.526;8.078;2023-02-28T04:44:14;100168.28;;;-0.67;62.22
77192;BME280;66172;48.526;8.078;2023-02-28T04:46:40;100157.28;;;-0.71;62.61
77192;BME280;66172;48.526;8.078;2023-02-28T04:49:08;100150.88;;;-0.70;62.88
77192;BME280;66172;48.526;8.078;2023-02-28T04:51:34;100162.00;;;-0.78;62.88
77192;BME280;66172;48.526;8.078;2023-02-28T04:54:00;100160.13;;;-0.77;63.16
77192;BME280;66172;48.526;8.078;2023-02-28T04:56:26;100166.84;;;-0.75;63.04
77192;BME280;66172;48.526;8.078;2023-02-28T04:58:51;100170.88;;;-0.72;62.81
77192;BME280;66172;48.526;8.078;2023-02-28T05:01:20;100162.63;;;-0.71;63.22
77192;BME280;66172;48.526;8.078;2023-02-28T05:03:46;100171.09;;;-0.57;62.47
77192;BME280;66172;48.526;8.078;2023-02-28T05:06:14;100177.16;;;-0.62;62.94
77192;BME280;66172;48.526;8.078;2023-02-28T05:08:40;100166.13;;;-0.48;61.73
77192;BME280;66172;48.526;8.078;2023-02-28T05:11:14;100178.50;;;-0.42;61.44
77192;BME280;66172;48.526;8.078;2023-02-28T05:13:41;100181.59;;;-0.51;62.41
77192;BME280;66172;48.526;8.078;2023-02-28T05:16:07;100174.63;;;-0.52;62.19
77192;BME280;66172;48.526;8.078;2023-02-28T05:18:33;100175.44;;;-0.51;62.57
77192;BME280;66172;48.526;8.078;2023-02-28T05:20:59;100179.22;;;-0.47;63.21
77192;BME280;66172;48.526;8.078;2023-02-28T05:23:27;100170.41;;;-0.47;62.74
77192;BME280;66172;48.526;8.078;2023-02-28T05:25:53;100173.00;;;-0.53;63.27
77192;BME280;66172;48.526;8.078;2023-02-28T05:28:20;100172.22;;;-0.53;63.12
77192;BME280;66172;48.526;8.078;2023-02-28T05:30:46;100165.25;;;-0.54;63.63
77192;BME280;66172;48.526;8.078;2023-02-28T05:33:12;100173.25;;;-0.54;63.79
77192;BME280;66172;48.526;8.078;2023-02-28T05:35:39;100171.13;;;-0.52;63.94
77192;BME280;66172;48.526;8.078;2023-02-28T05:38:05;100175.19;;;-0.49;63.70
77192;BME280;66172;48.526;8.078;2023-02-28T05:40:31;100170.41;;;-0.47;63.71
77192;BME280;66172;48.526;8.078;2023-02-28T05:42:57;100169.34;;;-0.46;63.76
77192;BME280;66172;48.526;8.078;2023-02-28T05:45:23;100170.94;;;-0.45;63.56
77192;BME280;66172;48.526;8.078;2023-02-28T05:47:53;100160.53;;;-0.47;63.38
77192;BME280;66172;48.526;8.078;2023-02-28T05:50:19;100171.22;;;-0.47;63.73
77192;BME280;66172;48.526;8.078;2023-02-28T05:52:49;100167.41;;;-0.51;63.82
77192;BME280;66172;48.526;8.078;2023-02-28T05:55:15;100166.63;;;-0.52;63.94
77192;BME280;66172;48.526;8.078;2023-02-28T05:57:41;100168.66;;;-0.59;64.47
77192;BME280;66172;48.526;8.078;2023-02-28T06:00:08;100169.78;;;-0.55;64.28
77192;BME280;66172;48.526;8.078;2023-02-28T06:02:34;100171.13;;;-0.52;64.05
77192;BME280;66172;48.526;8.078;2023-02-28T06:05:00;100173.06;;;-0.47;63.62
77192;BME280;66172;48.526;8.078;2023-02-28T06:07:26;100174.13;;;-0.48;64.15
77192;BME280;66172;48.526;8.078;2023-02-28T06:09:52;100177.47;;;-0.58;64.32
77192;BME280;66172;48.526;8.078;2023-02-28T06:12:18;100182.94;;;-0.48;63.53
77192;BME280;66172;48.526;8.078;2023-02-28T06:14:44;100178.97;;;-0.45;64.09
77192;BME280;66172;48.526;8.078;2023-02-28T06:17:10;100179.59;;;-0.38;64.02
77192;BME280;66172;48.526;8.078;2023-02-28T06:19:38;100186.13;;;-0.29;63.28
77192;BME280;66172;48.526;8.078;2023-02-28T06:22:05;100193.41;;;-0.25;63.30
77192;BME280;66172;48.526;8.078;2023-02-28T06:24:31;100196.56;;;-0.28;63.35
77192;BME280;66172;48.526;8.078;2023-02-28T06:26:57;100194.97;;;-0.29;63.70
77192;BME280;66172;48.526;8.078;2023-02-28T06:29:25;100191.72;;;-0.31;63.85
77192;BME280;66172;48.526;8.078;2023-02-28T06:31:50;100198.06;;;-0.37;64.21
77192;BME280;66172;48.526;8.078;2023-02-28T06:34:16;100207.31;;;-0.44;64.77
77192;BME280;66172;48.526;8.078;2023-02-28T06:36:43;100199.88;;;-0.42;64.44
77192;BME280;66172;48.526;8.078;2023-02-28T06:39:09;100206.69;;;-0.30;63.70
77192;BME280;66172;48.526;8.078;2023-02-28T06:41:35;100215.25;;;-0.28;63.75
77192;BME280;66172;48.526;8.078;2023-02-28T06:44:14;100217.94;;;-0.28;63.91
77192;BME280;66172;48.526;8.078;2023-02-28T06:46:41;100217.69;;;-0.26;64.37
77192;BME280;66172;48.526;8.078;2023-02-28T06:49:08;100225.81;;;-0.16;63.64
77192;BME280;66172;48.526;8.078;2023-02-28T06:51:36;100231.78;;;-0.09;63.70
77192;BME280;66172;48.526;8.078;2023-02-28T06:54:03;100221.09;;;-0.09;63.76
77192;BME280;66172;48.526;8.078;2023-02-28T06:56:29;100227.06;;;-0.02;63.19
77192;BME280;66172;48.526;8.078;2023-02-28T06:58:55;100227.81;;;-0.07;63.88
77192;BME280;66172;48.526;8.078;2023-02-28T07:01:21;100234.28;;;-0.03;63.81
77192;BME280;66172;48.526;8.078;2023-02-28T07:03:50;100229.75;;;-0.02;64.17
77192;BME280;66172;48.526;8.078;2023-02-28T07:06:21;100228.19;;;0.02;64.21
77192;BME280;66172;48.526;8.078;2023-02-28T07:08:49;100228.00;;;0.09;63.85
77192;BME280;66172;48.526;8.078;2023-02-28T07:11:15;100237.38;;;0.11;64.25
77192;BME280;66172;48.526;8.078;2023-02-28T07:13:41;100234.97;;;0.10;63.55
77192;BME280;66172;48.526;8.078;2023-02-28T07:16:09;100235.34;;;-0.04;64.37
77192;BME280;66172;48.526;8.078;2023-02-28T07:18:36;100240.44;;;-0.02;64.87
77192;BME280;66172;48.526;8.078;2023-02-28T07:21:03;100242.41;;;0.08;64.72
77192;BME280;66172;48.526;8.078;2023-02-28T07:23:29;100243.84;;;0.15;64.17
77192;BME280;66172;48.526;8.078;2023-02-28T07:25:55;100247.25;;;0.11;64.30
77192;BME280;66172;48.526;8.078;2023-02-28T07:28:21;100249.25;;;0.20;64.65
77192;BME280;66172;48.526;8.078;2023-02-28T07:30:47;100252.53;;;0.27;64.39
77192;BME280;66172;48.526;8.078;2023-02-28T07:33:13;100242.59;;;0.23;64.12
77192;BME280;66172;48.526;8.078;2023-02-28T07:35:39;100253.81;;;0.25;64.14
77192;BME280;66172;48.526;8.078;2023-02-28T07:38:05;100241.28;;;0.25;64.78
77192;BME280;66172;48.526;8.078;2023-02-28T07:40:34;100236.63;;;0.16;65.02
77192;BME280;66172;48.526;8.078;2023-02-28T07:43:00;100242.28;;;0.19;64.53
77192;BME280;66172;48.526;8.078;2023-02-28T07:45:27;100248.34;;;0.10;65.10
77192;BME280;66172;48.526;8.078;2023-02-28T07:47:54;100250.84;;;0.21;65.01
77192;BME280;66172;48.526;8.078;2023-02-28T07:50:21;100239.69;;;0.24;64.66
77192;BME280;66172;48.526;8.078;2023-02-28T07:52:47;100241.88;;;0.32;64.53
77192;BME280;66172;48.526;8.078;2023-02-28T07:55:14;100240.53;;;0.30;64.74
77192;BME280;66172;48.526;8.078;2023-02-28T07:57:40;100237.91;;;0.35;65.30
77192;BME280;66172;48.526;8.078;2023-02-28T08:00:09;100245.78;;;0.46;64.66
77192;BME280;66172;48.526;8.078;2023-02-28T08:02:36;100238.34;;;0.54;64.40
77192;BME280;66172;48.526;8.078;2023-02-28T08:05:02;100241.41;;;0.67;64.33
77192;BME280;66172;48.526;8.078;2023-02-28T08:07:28;100246.03;;;0.72;63.70
77192;BME280;66172;48.526;8.078;2023-02-28T08:09:54;100256.28;;;0.80;63.60
77192;BME280;66172;48.526;8.078;2023-02-28T08:12:20;100261.13;;;0.83;63.21
77192;BME280;66172;48.526;8.078;2023-02-28T08:14:46;100257.16;;;0.90;63.42
77192;BME280;66172;48.526;8.078;2023-02-28T08:17:12;100257.00;;;1.02;63.30
77192;BME280;66172;48.526;8.078;2023-02-28T08:19:38;100257.91;;;0.81;63.21
77192;BME280;66172;48.526;8.078;2023-02-28T08:22:03;100271.16;;;0.97;62.97
77192;BME280;66172;48.526;8.078;2023-02-28T08:24:29;100261.13;;;0.83;63.24
77192;BME280;66172;48.526;8.078;2023-02-28T08:26:56;100266.38;;;0.73;63.99
77192;BME280;66172;48.526;8.078;2023-02-28T08:29:22;100262.59;;;0.69;64.57
77192;BME280;66172;48.526;8.078;2023-02-28T08:31:48;100268.59;;;0.81;63.92
77192;BME280;66172;48.526;8.078;2023-02-28T08:34:15;100256.88;;;0.87;63.54
77192;BME280;66172;48.526;8.078;2023-02-28T08:36:41;100257.97;;;0.91;63.53
77192;BME280;66172;48.526;8.078;2023-02-28T08:39:10;100256.22;;;0.75;64.23
77192;BME280;66172;48.526;8.078;2023-02-28T08:41:36;100264.03;;;0.81;64.30
77192;BME280;66172;48.526;8.078;2023-02-28T08:44:02;100261.50;;;0.96;63.83
77192;BME280;66172;48.526;8.078;2023-02-28T08:46:28;100267.72;;;1.02;63.15
77192;BME280;66172;48.526;8.078;2023-02-28T08:48:56;100264.03;;;1.13;63.03
77192;BME280;66172;48.526;8.078;2023-02-28T08:51:25;100259.50;;;1.14;63.01
77192;BME280;66172;48.526;8.078;2023-02-28T08:53:53;100263.56;;;1.21;63.22
77192;BME280;66172;48.526;8.078;2023-02-28T08:56:20;100272.00;;;1.40;62.37
77192;BME280;66172;48.526;8.078;2023-02-28T08:58:47;100262.91;;;1.41;62.34
77192;BME280;66172;48.526;8.078;2023-02-28T09:01:16;100266.09;;;1.38;61.48
77192;BME280;66172;48.526;8.078;2023-02-28T09:03:43;100267.25;;;1.47;61.79
77192;BME280;66172;48.526;8.078;2023-02-28T09:06:10;100268.06;;;1.47;61.28
77192;BME280;66172;48.526;8.078;2023-02-28T09:08:37;100264.06;;;1.55;61.81
77192;BME280;66172;48.526;8.078;2023-02-28T09:11:03;100270.50;;;1.59;61.29
77192;BME280;66172;48.526;8.078;2023-02-28T09:13:30;100272.19;;;1.65;60.57
77192;BME280;66172;48.526;8.078;2023-02-28T09:15:59;100277.81;;;1.69;60.24
77192;BME280;66172;48.526;8.078;2023-02-28T09:18:26;100270.38;;;1.76;59.74
77192;BME280;66172;48.526;8.078;2023-02-28T09:20:52;100267.31;;;1.62;60.17
77192;BME280;66172;48.526;8.078;2023-02-28T09:23:18;100273.59;;;1.78;61.01
77192;BME280;66172;48.526;8.078;2023-02-28T09:25:49;100273.91;;;1.91;59.91
77192;BME280;66172;48.526;8.078;2023-02-28T09:28:16;100264.47;;;1.79;60.54
77192;BME280;66172;48.526;8.078;2023-02-28T09:30:48;100273.09;;;1.91;60.84
77192;BME280;66172;48.526;8.078;2023-02-28T09:33:15;100267.78;;;2.01;59.99
77192;BME280;66172;48.526;8.078;2023-02-28T09:35:41;100266.47;;;2.09;59.72
77192;BME280;66172;48.526;8.078;2023-02-28T09:38:09;100273.50;;;2.20;59.00
77192;BME280;66172;48.526;8.078;2023-02-28T09:40:47;100270.03;;;2.24;59.38
77192;BME280;66172;48.526;8.078;2023-02-28T09:43:14;100284.41;;;1.98;58.77
77192;BME280;66172;48.526;8.078;2023-02-28T09:45:52;100270.03;;;1.67;57.94
77192;BME280;66172;48.526;8.078;2023-02-28T09:48:35;100276.59;;;1.91;58.64
77192;BME280;66172;48.526;8.078;2023-02-28T09:51:15;100271.50;;;1.95;55.71
77192;BME280;66172;48.526;8.078;2023-02-28T09:53:49;100268.09;;;2.10;55.20
77192;BME280;66172;48.526;8.078;2023-02-28T09:56:19;100274.59;;;2.29;54.10
77192;BME280;66172;48.526;8.078;2023-02-28T09:59:18;100276.50;;;2.33;53.60
77192;BME280;66172;48.526;8.078;2023-02-28T10:07:17;100280.81;;;1.77;55.97
77192;BME280;66172;48.526;8.078;2023-02-28T10:09:47;100283.00;;;1.85;55.05
77192;BME280;66172;48.526;8.078;2023-02-28T10:12:16;100281.16;;;1.44;56.96
77192;BME280;66172;48.526;8.078;2023-02-28T10:14:46;100279.78;;;1.41;56.26
77192;BME280;66172;48.526;8.078;2023-02-28T10:17:19;100288.38;;;1.43;58.04
77192;BME280;66172;48.526;8.078;2023-02-28T10:22:19;100290.56;;;1.51;56.42
77192;BME280;66172;48.526;8.078;2023-02-28T10:24:49;100285.00;;;1.58;57.09
77192;BME280;66172;48.526;8.078;2023-02-28T10:27:22;100301.03;;;1.53;56.85
77192;BME280;66172;48.526;8.078;2023-02-28T10:29:57;100291.38;;;1.52;56.17
77192;BME280;66172;48.526;8.078;2023-02-28T10:32:25;100285.78;;;1.59;56.20
77192;BME280;66172;48.526;8.078;2023-02-28T10:34:58;100281.81;;;1.61;56.50
77192;BME280;66172;48.526;8.078;2023-02-28T10:37:25;100285.25;;;1.57;56.22
77192;BME280;66172;48.526;8.078;2023-02-28T10:39:51;100282.91;;;1.70;55.94
77192;BME280;66172;48.526;8.078;2023-02-28T10:42:29;100286.16;;;1.77;55.71
77192;BME280;66172;48.526;8.078;2023-02-28T10:45:15;100297.53;;;1.94;55.20
77192;BME280;66172;48.526;8.078;2023-02-28T10:47:56;100289.38;;;1.74;55.93
77192;BME280;66172;48.526;8.078;2023-02-28T10:50:35;100291.63;;;1.92;55.63
77192;BME280;66172;48.526;8.078;2023-02-28T10:53:15;100292.47;;;2.03;55.27
77192;BME280;66172;48.526;8.078;2023-02-28T10:55:42;100300.63;;;2.28;54.40
77192;BME280;66172;48.526;8.078;2023-02-28T10:58:22;100285.28;;;2.19;55.23
77192;BME280;66172;48.526;8.078;2023-02-28T11:00:49;100296.63;;;2.31;54.36
77192;BME280;66172;48.526;8.078;2023-02-28T11:03:33;100287.97;;;2.19;55.10
77192;BME280;66172;48.526;8.078;2023-02-28T11:06:12;100295.97;;;2.04;54.83
77192;BME280;66172;48.526;8.078;2023-02-28T11:08:49;100294.75;;;2.31;54.64
77192;BME280;66172;48.526;8.078;2023-02-28T11:11:16;100296.97;;;2.49;54.59
77192;BME280;66172;48.526;8.078;2023-02-28T11:13:43;100294.44;;;2.18;54.28
77192;BME280;66172;48.526;8.078;2023-02-28T11:16:11;100295.75;;;2.15;54.40
77192;BME280;66172;48.526;8.078;2023-02-28T11:18:51;100286.41;;;2.28;54.13
77192;BME280;66172;48.526;8.078;2023-02-28T11:21:23;100296.59;;;2.21;54.34
77192;BME280;66172;48.526;8.078;2023-02-28T11:23:54;100291.50;;;2.24;54.50
77192;BME280;66172;48.526;8.078;2023-02-28T11:26:38;100284.50;;;2.23;54.72
77192;BME280;66172;48.526;8.078;2023-02-28T11:29:22;100306.41;;;2.67;53.30
77192;BME280;66172;48.526;8.078;2023-02-28T11:32:12;100292.66;;;2.48;53.29
77192;BME280;66172;48.526;8.078;2023-02-28T11:34:41;100291.53;;;2.34;54.08
77192;BME280;66172;48.526;8.078;2023-02-28T11:37:13;100292.88;;;2.37;54.00
77192;BME280;66172;48.526;8.078;2023-02-28T11:39:40;100297.47;;;2.41;53.63
77192;BME280;66172;48.526;8.078;2023-02-28T11:42:23;100299.38;;;2.56;54.15
77192;BME280;66172;48.526;8.078;2023-02-28T11:45:11;100288.94;;;2.70;53.14
77192;BME280;66172;48.526;8.078;2023-02-28T11:47:45;100294.56;;;2.68;54.50
77192;BME280;66172;48.526;8.078;2023-02-28T11:53:05;100296.44;;;2.68;53.62
77192;BME280;66172;48.526;8.078;2023-02-28T11:55:42;100289.72;;;2.65;53.56
77192;BME280;66172;48.526;8.078;2023-02-28T12:00:57;100291.31;;;2.61;53.24
77192;BME280;66172;48.526;8.078;2023-02-28T12:03:31;100289.72;;;2.60;53.98
77192;BME280;66172;48.526;8.078;2023-02-28T12:11:56;100267.75;;;2.88;52.21
77192;BME280;66172;48.526;8.078;2023-02-28T12:17:30;100268.81;;;2.92;52.14
77192;BME280;66172;48.526;8.078;2023-02-28T12:25:49;100273.66;;;3.41;51.00
77192;BME280;66172;48.526;8.078;2023-02-28T12:28:21;100260.84;;;4.02;49.56
77192;BME280;66172;48.526;8.078;2023-02-28T12:31:24;100261.44;;;3.84;49.81
77192;BME280;66172;48.526;8.078;2023-02-28T12:34:03;100263.44;;;3.43;50.90
77192;BME280;66172;48.526;8.078;2023-02-28T12:36:31;100265.78;;;3.75;50.18
77192;BME280;66172;48.526;8.078;2023-02-28T12:39:12;100253.22;;;3.50;50.90
77192;BME280;66172;48.526;8.078;2023-02-28T12:41:46;100254.78;;;4.35;49.34
77192;BME280;66172;48.526;8.078;2023-02-28T12:44:34;100249.31;;;3.91;49.46
77192;BME280;66172;48.526;8.078;2023-02-28T12:47:04;100256.53;;;4.06;49.41
77192;BME280;66172;48.526;8.078;2023-02-28T12:52:00;100250.75;;;4.77;47.45
77192;BME280;66172;48.526;8.078;2023-02-28T12:54:38;100243.25;;;4.74;47.30
77192;BME280;66172;48.526;8.078;2023-02-28T12:57:13;100238.34;;;5.43;45.83
77192;BME280;66172;48.526;8.078;2023-02-28T12:59:48;100237.41;;;5.29;45.45
77192;BME280;66172;48.526;8.078;2023-02-28T13:02:30;100237.63;;;4.70;47.12
77192;BME280;66172;48.526;8.078;2023-02-28T13:10:54;100235.69;;;5.38;45.24
77192;BME280;66172;48.526;8.078;2023-02-28T13:13:23;100230.88;;;5.35;45.11
77192;BME280;66172;48.526;8.078;2023-02-28T13:16:08;100230.78;;;6.17;44.17
77192;BME280;66172;48.526;8.078;2023-02-28T13:18:40;100238.53;;;6.05;43.61
77192;BME280;66172;48.526;8.078;2023-02-28T13:21:21;100226.31;;;5.83;44.75
77192;BME280;66172;48.526;8.078;2023-02-28T13:34:27;100227.81;;;6.74;42.03
77192;BME280;66172;48.526;8.078;2023-02-28T13:42:33;100231.72;;;6.68;42.59
77192;BME280;66172;48.526;8.078;2023-02-28T13:47:39;100237.97;;;6.82;41.36
77192;BME280;66172;48.526;8.078;2023-02-28T14:01:17;100233.47;;;7.56;39.82
77192;BME280;66172;48.526;8.078;2023-02-28T14:04:00;100225.56;;;8.00;39.53
77192;BME280;66172;48.526;8.078;2023-02-28T14:06:31;100232.16;;;7.67;40.05
77192;BME280;66172;48.526;8.078;2023-02-28T14:09:21;100231.25;;;7.99;40.42
77192;BME280;66172;48.526;8.078;2023-02-28T14:11:49;100230.25;;;8.36;39.52
77192;BME280;66172;48.526;8.078;2023-02-28T14:17:01;100218.13;;;8.33;39.74
77192;BME280;66172;48.526;8.078;2023-02-28T14:19:32;100225.53;;;8.41;39.84
77192;BME280;66172;48.526;8.078;2023-02-28T14:22:21;100222.72;;;8.46;39.88
77192;BME280;66172;48.526;8.078;2023-02-28T14:25:40;100217.25;;;8.60;39.52
77192;BME280;66172;48.526;8.078;2023-02-28T14:31:11;100216.06;;;8.52;40.16
77192;BME280;66172;48.526;8.078;2023-02-28T14:36:16;100210.16;;;8.73;39.15
77192;BME280;66172;48.526;8.078;2023-02-28T14:38:51;100213.81;;;8.68;39.27
77192;BME280;66172;48.526;8.078;2023-02-28T14:41:24;100209.66;;;8.48;38.68
77192;BME280;66172;48.526;8.078;2023-02-28T14:43:57;100213.81;;;8.68;39.49
77192;BME280;66172;48.526;8.078;2023-02-28T14:46:26;100212.28;;;8.76;38.54
77192;BME280;66172;48.526;8.078;2023-02-28T14:48:54;100210.31;;;8.90;37.84
77192;BME280;66172;48.526;8.078;2023-02-28T14:51:22;100208.56;;;8.94;36.63
77192;BME280;66172;48.526;8.078;2023-02-28T14:53:51;100210.31;;;8.90;37.46